createdAt,value
2018-01-12T00:00:09.783Z,92.5
2018-01-12T00:01:13.968Z,92.3
2018-01-12T00:02:17.910Z,92.3
2018-01-12T00:03:21.415Z,92.2
2018-01-12T00:04:26.562Z,92.3
2018-01-12T00:05:31.487Z,92.2
2018-01-12T00:06:34.796Z,92.2
2018-01-12T00:07:38.709Z,92.2
2018-01-12T00:09:20.350Z,92.2
2018-01-12T00:10:24.862Z,92.3
2018-01-12T00:11:30.326Z,92.3
2018-01-12T00:12:35.155Z,92.3
2018-01-12T00:13:41.433Z,92.3
2018-01-12T00:14:48.390Z,92.3
2018-01-12T00:15:52.971Z,92.3
2018-01-12T00:16:58.378Z,92.3
2018-01-12T00:18:03.731Z,92.3
2018-01-12T00:19:07.890Z,92.3
2018-01-12T00:20:19.287Z,92.2
2018-01-12T00:21:24.486Z,92.3
2018-01-12T00:22:30.705Z,92.4
2018-01-12T00:23:36.985Z,92.3
2018-01-12T00:24:43.832Z,92.3
2018-01-12T00:25:50.118Z,92.3
2018-01-12T00:26:56.798Z,92.3
2018-01-12T00:28:02.917Z,92.3
2018-01-12T00:29:08.405Z,92.5
2018-01-12T00:30:15.409Z,92.3
2018-01-12T00:31:27.847Z,92.3
2018-01-12T00:32:34.312Z,92.5
2018-01-12T00:33:40.361Z,92.6
2018-01-12T00:34:47.556Z,92.6
2018-01-12T00:35:52.121Z,92.5
2018-01-12T00:36:57.447Z,92.5
2018-01-12T00:38:04.236Z,92.5
2018-01-12T00:39:09.952Z,92.4
2018-01-12T00:40:15.958Z,92.4
2018-01-12T00:41:21.854Z,92.5
2018-01-12T00:42:38.062Z,92.4
2018-01-12T00:43:44.666Z,92.4
2018-01-12T00:44:51.329Z,92.4
2018-01-12T00:45:58.755Z,92.4
2018-01-12T00:47:06.584Z,92.4
2018-01-12T00:48:14.122Z,92.8
2018-01-12T00:49:22.155Z,92.6
2018-01-12T00:50:30.358Z,92.6
2018-01-12T00:51:37.344Z,92.7
2018-01-12T00:52:44.949Z,92.7
2018-01-12T00:53:54.764Z,92.8
2018-01-12T00:55:03.707Z,93
2018-01-12T00:56:11.918Z,93.1
2018-01-12T00:57:21.283Z,93
2018-01-12T00:58:28.620Z,92.9
2018-01-12T00:59:31.891Z,92.8
2018-01-12T01:00:40.614Z,92.9
2018-01-12T01:01:49.104Z,92.9
2018-01-12T01:02:55.962Z,93.1
2018-01-12T01:04:03.537Z,93.2
2018-01-12T01:05:13.863Z,93.3
2018-01-12T01:06:20.771Z,93.2
2018-01-12T01:07:29.120Z,93.3
2018-01-12T01:08:36.875Z,93.3
2018-01-12T01:09:40.833Z,93.2
2018-01-12T01:10:47.998Z,93.1
2018-01-12T01:11:54.955Z,93.1
2018-01-12T01:13:00.220Z,93.2
2018-01-12T01:14:06.834Z,93.2
2018-01-12T01:15:14.260Z,93.2
2018-01-12T01:16:29.327Z,93.2
2018-01-12T01:17:33.995Z,93.2
2018-01-12T01:18:39.624Z,93
2018-01-12T01:19:45.799Z,93.1
2018-01-12T01:20:54.957Z,93.1
2018-01-12T01:22:01.471Z,93.1
2018-01-12T01:23:07.109Z,93.1
2018-01-12T01:24:13.648Z,93
2018-01-12T01:25:21.648Z,93.1
2018-01-12T01:26:28.989Z,93.2
2018-01-12T01:27:40.423Z,93.3
2018-01-12T01:28:46.888Z,93.4
2018-01-12T01:29:56.807Z,93.3
2018-01-12T01:31:03.032Z,93.1
2018-01-12T01:32:09.244Z,93.1
2018-01-12T01:33:17.848Z,93.2
2018-01-12T01:34:25.614Z,93.2
2018-01-12T01:35:31.682Z,93.2
2018-01-12T01:36:37.503Z,93.2
2018-01-12T01:37:43.489Z,93.2
2018-01-12T01:38:59.172Z,93.3
2018-01-12T01:40:05.591Z,93.4
2018-01-12T01:41:12.709Z,93.5
2018-01-12T01:42:18.850Z,93.5
2018-01-12T01:43:25.404Z,93.5
2018-01-12T01:44:29.944Z,93.4
2018-01-12T01:45:33.168Z,93.3
2018-01-12T01:46:39.920Z,93.2
2018-01-12T01:47:43.805Z,93.1
2018-01-12T01:48:52.639Z,93
2018-01-12T01:50:07.092Z,93.2
2018-01-12T01:51:13.253Z,93.2
2018-01-12T01:52:20.460Z,93.2
2018-01-12T01:53:27.590Z,93.3
2018-01-12T01:54:34.750Z,93.4
2018-01-12T01:55:41.235Z,93.3
2018-01-12T01:56:47.251Z,93.4
2018-01-12T01:57:51.659Z,93.4
2018-01-12T01:58:54.971Z,93.3
2018-01-12T02:00:03.192Z,93.1
2018-01-12T02:02:20.291Z,93.2
2018-01-12T02:03:29.165Z,93.3
2018-01-12T02:04:38.053Z,93.2
2018-01-12T02:05:44.100Z,93.1
2018-01-12T02:06:50.344Z,93.1
2018-01-12T02:07:55.282Z,93
2018-01-12T02:09:02.691Z,92.9
2018-01-12T02:10:08.564Z,92.9
2018-01-12T02:11:14.314Z,93.1
2018-01-12T02:12:25.671Z,92.8
2018-01-12T02:13:38.718Z,92.8
2018-01-12T02:14:43.299Z,92.8
2018-01-12T02:15:47.539Z,92.8
2018-01-12T02:16:51.659Z,92.8
2018-01-12T02:17:54.954Z,92.8
2018-01-12T02:18:58.428Z,92.7
2018-01-12T02:20:04.601Z,92.7
2018-01-12T02:21:10.457Z,92.7
2018-01-12T02:22:16.355Z,92.8
2018-01-12T02:23:19.739Z,92.7
2018-01-12T02:24:26.844Z,92.7
2018-01-12T02:25:30.936Z,92.7
2018-01-12T02:26:34.354Z,92.7
2018-01-12T02:27:37.828Z,92.7
2018-01-12T02:28:41.140Z,92.7
2018-01-12T02:29:44.590Z,92.7
2018-01-12T02:30:48.072Z,92.7
2018-01-12T02:31:51.623Z,92.7
2018-01-12T02:32:55.889Z,92.7
2018-01-12T02:33:59.812Z,92.9
2018-01-12T02:35:06.834Z,92.9
2018-01-12T02:36:10.943Z,92.8
2018-01-12T02:37:15.146Z,92.8
2018-01-12T02:38:19.432Z,92.8
2018-01-12T02:39:23.579Z,92.8
2018-01-12T02:40:27.967Z,92.7
2018-01-12T02:41:32.029Z,92.7
2018-01-12T02:42:36.106Z,92.7
2018-01-12T02:43:39.641Z,92.7
2018-01-12T02:44:43.121Z,92.8
2018-01-12T02:45:51.004Z,92.8
2018-01-12T02:46:56.718Z,92.9
2018-01-12T02:48:00.837Z,92.8
2018-01-12T02:49:06.223Z,92.9
2018-01-12T02:50:14.441Z,92.9
2018-01-12T02:51:18.538Z,92.8
2018-01-12T02:52:23.972Z,92.9
2018-01-12T02:53:29.522Z,92.8
2018-01-12T02:54:34.359Z,92.8
2018-01-12T02:55:39.572Z,92.8
2018-01-12T02:57:20.432Z,92.9
2018-01-12T02:58:25.276Z,92.9
2018-01-12T02:59:30.543Z,93
2018-01-12T03:00:35.983Z,93.1
2018-01-12T03:01:42.645Z,93
2018-01-12T03:02:47.849Z,92.9
2018-01-12T03:03:54.003Z,93
2018-01-12T03:05:02.202Z,93
2018-01-12T03:06:07.533Z,93.1
2018-01-12T03:07:12.727Z,92.9
2018-01-12T03:08:23.384Z,93.1
2018-01-12T03:09:29.206Z,93.2
2018-01-12T03:10:35.958Z,93.2
2018-01-12T03:11:44.688Z,93.1
2018-01-12T03:12:51.360Z,93.2
2018-01-12T03:13:59.793Z,93.3
2018-01-12T03:15:05.124Z,93.3
2018-01-12T03:16:10.413Z,93.2
2018-01-12T03:17:17.631Z,93.2
2018-01-12T03:18:25.150Z,93.3
2018-01-12T03:19:36.133Z,93.4
2018-01-12T03:20:44.297Z,93.3
2018-01-12T03:21:50.873Z,93.3
2018-01-12T03:22:56.933Z,93.2
2018-01-12T03:24:02.893Z,93.2
2018-01-12T03:25:12.140Z,93.1
2018-01-12T03:26:17.272Z,93.1
2018-01-12T03:27:23.767Z,93.1
2018-01-12T03:28:31.372Z,93.1
2018-01-12T03:29:37.124Z,93.1
2018-01-12T03:30:50.756Z,93.3
2018-01-12T03:31:58.189Z,93.1
2018-01-12T03:33:05.187Z,93.2
2018-01-12T03:34:12.355Z,93.3
2018-01-12T03:35:16.960Z,93.4
2018-01-12T03:36:23.956Z,93.5
2018-01-12T03:37:31.992Z,93.6
2018-01-12T03:38:38.864Z,93.5
2018-01-12T03:39:47.549Z,93.5
2018-01-12T03:40:54.575Z,93.3
2018-01-12T03:42:06.136Z,93.3
2018-01-12T03:43:10.760Z,93.3
2018-01-12T03:44:16.184Z,93.3
2018-01-12T03:45:26.422Z,93.3
2018-01-12T03:46:33.658Z,93.3
2018-01-12T03:47:43.216Z,93.2
2018-01-12T03:48:50.971Z,93.1
2018-01-12T03:49:57.583Z,93.1
2018-01-12T03:51:07.044Z,93.2
2018-01-12T03:52:13.818Z,93.2
2018-01-12T03:53:25.207Z,93.3
2018-01-12T03:54:30.704Z,93.4
2018-01-12T03:55:37.400Z,93.4
2018-01-12T03:56:43.698Z,93.4
2018-01-12T03:57:52.560Z,93.3
2018-01-12T03:58:58.402Z,93.3
2018-01-12T04:00:04.934Z,93.2
2018-01-12T04:01:09.811Z,93.2
2018-01-12T04:02:16.999Z,93.2
2018-01-12T04:03:25.425Z,93.1
2018-01-12T04:04:39.266Z,93.3
2018-01-12T04:05:48.888Z,93.3
2018-01-12T04:06:58.253Z,93.2
2018-01-12T04:08:05.225Z,93.3
2018-01-12T04:09:11.140Z,93.2
2018-01-12T04:10:16.758Z,93.2
2018-01-12T04:11:22.977Z,93.3
2018-01-12T04:12:29.701Z,93.1
2018-01-12T04:13:35.408Z,93.1
2018-01-12T04:14:39.408Z,93.1
2018-01-12T04:15:46.832Z,93.1
2018-01-12T04:16:52.554Z,93.1
2018-01-12T04:17:57.981Z,93.1
2018-01-12T04:19:04.419Z,93.1
2018-01-12T04:20:10.759Z,93.2
2018-01-12T04:21:19.411Z,93.1
2018-01-12T04:22:31.955Z,93
2018-01-12T04:23:38.175Z,93
2018-01-12T04:24:47.251Z,93.1
2018-01-12T04:25:52.264Z,93
2018-01-12T04:27:03.474Z,93
2018-01-12T04:28:10.958Z,93
2018-01-12T04:29:15.753Z,93
2018-01-12T04:30:22.680Z,93.1
2018-01-12T04:31:28.686Z,93
2018-01-12T04:32:35.258Z,93
2018-01-12T04:33:42.549Z,93
2018-01-12T04:34:47.361Z,93.1
2018-01-12T04:35:52.726Z,93.1
2018-01-12T04:36:58.970Z,93
2018-01-12T04:38:12.782Z,93
2018-01-12T04:39:18.309Z,93.1
2018-01-12T04:40:25.077Z,93.1
2018-01-12T04:41:36.178Z,93.1
2018-01-12T04:42:41.390Z,93.1
2018-01-12T04:43:49.111Z,93.1
2018-01-12T04:44:55.089Z,93.1
2018-01-12T04:45:59.953Z,93
2018-01-12T04:47:06.791Z,93.1
2018-01-12T04:48:13.107Z,93.1
2018-01-12T04:49:55.454Z,93.2
2018-01-12T04:51:00.370Z,93.2
2018-01-12T04:52:04.481Z,93.2
2018-01-12T04:53:08.064Z,93.1
2018-01-12T04:54:12.412Z,93.1
2018-01-12T04:55:16.488Z,93.2
2018-01-12T04:56:19.910Z,93
2018-01-12T04:57:23.400Z,93
2018-01-12T04:58:26.980Z,93.1
2018-01-12T04:59:30.496Z,93
2018-01-12T05:00:38.358Z,93
2018-01-12T05:01:41.844Z,93.1
2018-01-12T05:02:45.973Z,93
2018-01-12T05:03:49.486Z,93.1
2018-01-12T05:04:53.616Z,93
2018-01-12T05:05:58.561Z,93.1
2018-01-12T05:07:02.150Z,93.3
2018-01-12T05:08:05.568Z,93.1
2018-01-12T05:09:09.188Z,93.2
2018-01-12T05:10:14.573Z,93.2
2018-01-12T05:11:22.515Z,93.3
2018-01-12T05:12:26.510Z,93.1
2018-01-12T05:13:29.899Z,93.2
2018-01-12T05:14:33.401Z,93.1
2018-01-12T05:15:37.742Z,93.1
2018-01-12T05:16:42.117Z,93.1
2018-01-12T05:17:45.725Z,93.1
2018-01-12T05:18:49.894Z,93.1
2018-01-12T05:19:54.932Z,93
2018-01-12T05:20:58.651Z,93
2018-01-12T05:22:06.491Z,93.1
2018-01-12T05:23:10.891Z,93
2018-01-12T05:24:15.492Z,93
2018-01-12T05:25:19.916Z,93
2018-01-12T05:26:23.598Z,93.1
2018-01-12T05:27:28.454Z,93.2
2018-01-12T05:28:31.811Z,93.1
2018-01-12T05:29:35.288Z,93.1
2018-01-12T05:30:39.205Z,93.3
2018-01-12T05:31:43.894Z,93.2
2018-01-12T05:33:25.494Z,93.1
2018-01-12T05:34:29.981Z,93.1
2018-01-12T05:35:35.445Z,93.2
2018-01-12T05:36:43.157Z,93.1
2018-01-12T05:37:50.479Z,93.2
2018-01-12T05:38:55.862Z,93.4
2018-01-12T05:40:01.844Z,93.2
2018-01-12T05:41:09.616Z,93.2
2018-01-12T05:42:15.735Z,93.2
2018-01-12T05:43:20.441Z,93.3
2018-01-12T05:45:03.839Z,93.2
2018-01-12T05:46:09.766Z,93.5
2018-01-12T05:47:13.214Z,93.5
2018-01-12T05:48:22.820Z,93.6
2018-01-12T05:49:28.115Z,93.4
2018-01-12T05:50:34.364Z,93.4
2018-01-12T05:51:40.840Z,93.4
2018-01-12T05:52:48.826Z,93.4
2018-01-12T05:53:53.560Z,93.2
2018-01-12T05:54:58.200Z,93.2
2018-01-12T05:56:09.315Z,93.3
2018-01-12T05:57:14.538Z,93.2
2018-01-12T05:58:21.258Z,93.2
2018-01-12T05:59:28.726Z,93.2
2018-01-12T06:00:34.789Z,93.2
2018-01-12T06:01:41.396Z,93.3
2018-01-12T06:02:47.175Z,93.3
2018-01-12T06:03:52.509Z,93.3
2018-01-12T06:04:57.063Z,93.3
2018-01-12T06:06:01.674Z,93.2
2018-01-12T06:07:16.446Z,93.3
2018-01-12T06:08:20.986Z,93.5
2018-01-12T06:09:27.197Z,93.6
2018-01-12T06:10:33.427Z,93.6
2018-01-12T06:11:39.112Z,93.6
2018-01-12T06:12:45.171Z,93.6
2018-01-12T06:13:50.290Z,93.5
2018-01-12T06:14:57.789Z,93.3
2018-01-12T06:16:02.883Z,93.4
2018-01-12T06:17:10.102Z,93.4
2018-01-12T06:18:19.285Z,93.3
2018-01-12T06:19:23.890Z,93.4
2018-01-12T06:20:30.477Z,93.6
2018-01-12T06:21:36.175Z,93.6
2018-01-12T06:22:45.935Z,93.7
2018-01-12T06:23:55.301Z,93.7
2018-01-12T06:25:01.987Z,93.6
2018-01-12T06:26:09.103Z,93.8
2018-01-12T06:27:16.139Z,93.5
2018-01-12T06:28:22.454Z,93.5
2018-01-12T06:30:43.702Z,93.4
2018-01-12T06:31:52.897Z,93.3
2018-01-12T06:32:59.091Z,93.3
2018-01-12T06:34:07.382Z,93.3
2018-01-12T06:35:16.198Z,93.2
2018-01-12T06:36:23.011Z,93.2
2018-01-12T06:37:31.411Z,93.4
2018-01-12T06:38:37.842Z,93.4
2018-01-12T06:39:46.285Z,93.3
2018-01-12T06:40:50.671Z,93.3
2018-01-12T06:42:03.440Z,93.2
2018-01-12T06:43:09.598Z,93.3
2018-01-12T06:44:14.259Z,93.3
2018-01-12T06:45:19.587Z,93.3
2018-01-12T06:46:23.016Z,93.3
2018-01-12T06:47:33.041Z,93.3
2018-01-12T06:48:40.410Z,93.2
2018-01-12T06:49:47.643Z,93.3
2018-01-12T06:50:53.335Z,93.3
2018-01-12T06:51:59.724Z,93.3
2018-01-12T06:53:11.595Z,93.3
2018-01-12T06:54:18.953Z,93.3
2018-01-12T06:55:28.163Z,93.2
2018-01-12T06:56:35.456Z,93.2
2018-01-12T06:57:42.448Z,93.3
2018-01-12T06:58:49.885Z,93.3
2018-01-12T06:59:56.960Z,93.3
2018-01-12T07:01:01.925Z,93.3
2018-01-12T07:02:08.492Z,93.2
2018-01-12T07:03:15.425Z,93.3
2018-01-12T07:04:26.601Z,93.3
2018-01-12T07:05:32.553Z,93.4
2018-01-12T07:06:36.053Z,93.4
2018-01-12T07:07:42.621Z,93.3
2018-01-12T07:08:46.587Z,93.3
2018-01-12T07:09:52.728Z,93.2
2018-01-12T07:10:57.424Z,93.2
2018-01-12T07:12:01.290Z,93.2
2018-01-12T07:13:07.025Z,93.2
2018-01-12T07:14:12.688Z,93.2
2018-01-12T07:15:54.566Z,93.3
2018-01-12T07:17:00.566Z,93.4
2018-01-12T07:18:06.341Z,93.4
2018-01-12T07:19:12.521Z,93.3
2018-01-12T07:20:18.283Z,93.2
2018-01-12T07:21:26.803Z,93.1
2018-01-12T07:22:32.797Z,93.2
2018-01-12T07:23:40.710Z,93.1
2018-01-12T07:24:46.151Z,93.2
2018-01-12T07:25:50.465Z,93.2
2018-01-12T07:26:58.412Z,93.2
2018-01-12T07:28:02.654Z,93.2
2018-01-12T07:29:06.094Z,93.2
2018-01-12T07:30:09.592Z,93.2
2018-01-12T07:31:12.920Z,93.2
2018-01-12T07:32:16.964Z,93.1
2018-01-12T07:33:21.365Z,93.1
2018-01-12T07:34:24.804Z,93.2
2018-01-12T07:35:28.335Z,93.3
2018-01-12T07:36:31.725Z,93.3
2018-01-12T07:37:38.659Z,93.2
2018-01-12T07:38:42.472Z,93.3
2018-01-12T07:39:45.876Z,93.2
2018-01-12T07:40:49.854Z,93.1
2018-01-12T07:41:54.113Z,93.1
2018-01-12T07:42:58.257Z,93.2
2018-01-12T07:44:02.522Z,93.1
2018-01-12T07:45:06.562Z,93.2
2018-01-12T07:46:10.682Z,93.2
2018-01-12T07:47:14.245Z,93.1
2018-01-12T07:48:22.138Z,93.2
2018-01-12T07:49:26.480Z,93.2
2018-01-12T07:50:30.197Z,93.3
2018-01-12T07:51:33.586Z,93.2
2018-01-12T07:52:38.681Z,93.3
2018-01-12T07:53:42.094Z,93.3
2018-01-12T07:54:45.643Z,93.3
2018-01-12T07:55:50.692Z,93.3
2018-01-12T07:56:55.365Z,93.3
2018-01-12T07:57:58.568Z,93.3
2018-01-12T07:59:06.932Z,93.3
2018-01-12T08:00:12.066Z,93.3
2018-01-12T08:01:17.024Z,93.4
2018-01-12T08:02:21.162Z,93.4
2018-01-12T08:03:24.855Z,93.5
2018-01-12T08:04:28.976Z,93.5
2018-01-12T08:05:34.765Z,93.6
2018-01-12T08:06:38.786Z,93.6
2018-01-12T08:07:45.178Z,93.6
2018-01-12T08:08:49.333Z,93.6
2018-01-12T08:09:59.526Z,93.6
2018-01-12T08:11:04.906Z,93.7
2018-01-12T08:12:09.884Z,93.7
2018-01-12T08:13:16.562Z,93.7
2018-01-12T08:14:22.879Z,93.6
2018-01-12T08:15:30.299Z,93.4
2018-01-12T08:16:37.078Z,93.3
2018-01-12T08:17:42.857Z,93.3
2018-01-12T08:18:47.388Z,93.3
2018-01-12T08:19:52.523Z,93.4
2018-01-12T08:21:01.415Z,93.3
2018-01-12T08:22:07.345Z,93.3
2018-01-12T08:23:12.715Z,93.3
2018-01-12T08:24:17.422Z,93.4
2018-01-12T08:25:22.798Z,93.4
2018-01-12T08:26:27.321Z,93.4
2018-01-12T08:27:34.420Z,93.4
2018-01-12T08:28:39.892Z,93.4
2018-01-12T08:29:44.052Z,93.5
2018-01-12T08:30:51.558Z,93.4
2018-01-12T08:32:04.788Z,93.4
2018-01-12T08:33:12.779Z,93.4
2018-01-12T08:34:17.209Z,93.3
2018-01-12T08:35:23.661Z,93.3
2018-01-12T08:36:27.100Z,93.4
2018-01-12T08:37:32.630Z,93.4
2018-01-12T08:38:37.175Z,93.4
2018-01-12T08:39:43.122Z,93.4
2018-01-12T08:40:50.547Z,93.4
2018-01-12T08:41:56.487Z,93.4
2018-01-12T08:43:09.438Z,93.4
2018-01-12T08:44:19.501Z,93.4
2018-01-12T08:45:25.493Z,93.5
2018-01-12T08:46:30.125Z,93.5
2018-01-12T08:47:35.486Z,93.3
2018-01-12T08:48:42.583Z,93.2
2018-01-12T08:49:48.417Z,93.2
2018-01-12T08:50:53.949Z,93.3
2018-01-12T08:52:01.605Z,93.2
2018-01-12T08:53:06.294Z,93.3
2018-01-12T08:54:13.711Z,93.1
2018-01-12T08:55:17.029Z,93.2
2018-01-12T08:56:20.571Z,93.2
2018-01-12T08:57:27.623Z,93.1
2018-01-12T08:58:33.976Z,93.1
2018-01-12T08:59:40.879Z,93
2018-01-12T09:00:44.787Z,93.1
2018-01-12T09:01:52.448Z,93.1
2018-01-12T09:03:00.473Z,93
2018-01-12T09:04:05.982Z,93
2018-01-12T09:05:22.486Z,93
2018-01-12T09:06:29.840Z,93
2018-01-12T09:07:37.568Z,93.1
2018-01-12T09:08:44.014Z,93.1
2018-01-12T09:09:49.048Z,93.1
2018-01-12T09:10:55.515Z,93
2018-01-12T09:11:59.932Z,93
2018-01-12T09:13:04.026Z,93
2018-01-12T09:14:10.024Z,92.9
2018-01-12T09:15:15.661Z,92.8
2018-01-12T09:16:34.738Z,92.9
2018-01-12T09:17:50.269Z,92.9
2018-01-12T09:18:55.819Z,92.8
2018-01-12T09:20:01.144Z,92.7
2018-01-12T09:21:05.928Z,92.7
2018-01-12T09:22:11.124Z,92.7
2018-01-12T09:23:17.719Z,92.8
2018-01-12T09:24:24.965Z,92.7
2018-01-12T09:25:28.492Z,92.8
2018-01-12T09:26:34.395Z,92.7
2018-01-12T09:27:44.898Z,92.8
2018-01-12T09:28:51.583Z,92.7
2018-01-12T09:29:59.963Z,92.7
2018-01-12T09:31:05.502Z,92.6
2018-01-12T09:32:08.875Z,92.8
2018-01-12T09:33:16.171Z,92.9
2018-01-12T09:34:19.848Z,92.9
2018-01-12T09:35:25.884Z,92.8
2018-01-12T09:36:31.414Z,92.9
2018-01-12T09:37:37.884Z,93
2018-01-12T09:38:48.049Z,92.9
2018-01-12T09:39:55.657Z,92.9
2018-01-12T09:40:59.115Z,92.8
2018-01-12T09:42:03.279Z,93
2018-01-12T09:43:07.382Z,92.9
2018-01-12T09:44:16.063Z,93
2018-01-12T09:45:24.510Z,92.9
2018-01-12T09:46:28.759Z,92.8
2018-01-12T09:47:35.118Z,92.8
2018-01-12T09:48:44.463Z,92.9
2018-01-12T09:49:57.583Z,92.9
2018-01-12T09:51:06.571Z,93
2018-01-12T09:52:17.066Z,93
2018-01-12T09:53:24.765Z,93.1
2018-01-12T09:54:31.669Z,93
2018-01-12T09:55:39.195Z,93
2018-01-12T09:56:43.065Z,93
2018-01-12T09:57:46.429Z,93
2018-01-12T09:58:50.733Z,92.9
2018-01-12T09:59:54.209Z,92.9
2018-01-12T10:01:02.559Z,92.8
2018-01-12T10:02:07.358Z,92.8
2018-01-12T10:03:11.004Z,92.8
2018-01-12T10:04:15.522Z,92.8
2018-01-12T10:05:19.791Z,92.9
2018-01-12T10:06:24.650Z,92.9
2018-01-12T10:07:31.950Z,92.9
2018-01-12T10:08:37.042Z,93
2018-01-12T10:09:54.807Z,92.9
2018-01-12T10:11:01.057Z,92.8
2018-01-12T10:12:10.979Z,93.2
2018-01-12T10:13:17.776Z,92.7
2018-01-12T10:14:24.815Z,92.6
2018-01-12T10:15:28.404Z,92.5
2018-01-12T10:16:33.637Z,92.4
2018-01-12T10:17:37.630Z,92.4
2018-01-12T10:18:41.661Z,92.4
2018-01-12T10:19:46.613Z,92.4
2018-01-12T10:20:50.203Z,92.1
2018-01-12T10:21:54.646Z,92.3
2018-01-12T10:23:01.441Z,92.1
2018-01-12T10:24:04.942Z,92.1
2018-01-12T10:25:08.273Z,92.1
2018-01-12T10:26:11.686Z,91.8
2018-01-12T10:27:15.371Z,91.7
2018-01-12T10:28:19.086Z,91.9
2018-01-12T10:29:22.424Z,91.7
2018-01-12T10:30:25.958Z,91.7
2018-01-12T10:31:30.601Z,91.8
2018-01-12T10:32:35.297Z,91.9
2018-01-12T10:33:45.470Z,91.8
2018-01-12T10:34:52.559Z,91.9
2018-01-12T10:35:56.742Z,91.8
2018-01-12T10:37:03.249Z,91.6
2018-01-12T10:38:17.659Z,91.5
2018-01-12T10:39:25.765Z,91.5
2018-01-12T10:42:02.714Z,91.5
2018-01-12T10:43:36.024Z,91.6
2018-01-12T10:46:05.741Z,91.7
2018-01-12T10:48:06.507Z,91.7
2018-01-12T10:50:14.515Z,91.6
2018-01-12T10:51:48.380Z,91.5
2018-01-12T10:53:20.204Z,91.4
2018-01-12T10:57:37.528Z,91.4
2018-01-12T11:01:17.671Z,91.2
2018-01-12T11:02:20.946Z,90.9
2018-01-12T11:03:24.407Z,90.8
2018-01-12T11:04:27.866Z,91.1
2018-01-12T11:05:32.672Z,90.8
2018-01-12T11:06:36.148Z,90.8
2018-01-12T11:07:39.264Z,90.9
2018-01-12T11:08:43.466Z,90.8
2018-01-12T11:09:46.893Z,90.5
2018-01-12T11:10:50.366Z,90.5
2018-01-12T11:11:57.414Z,90.7
2018-01-12T11:13:01.542Z,90.7
2018-01-12T11:14:05.107Z,90.8
2018-01-12T11:15:10.182Z,91
2018-01-12T11:16:13.572Z,91.1
2018-01-12T11:17:19.065Z,91
2018-01-12T11:18:22.385Z,90.9
2018-01-12T11:19:26.557Z,90.9
2018-01-12T11:20:30.050Z,90.7
2018-01-12T11:21:33.683Z,90.7
2018-01-12T11:23:13.802Z,90.7
2018-01-12T11:24:18.318Z,90.4
2018-01-12T11:25:23.896Z,90.6
2018-01-12T11:26:27.796Z,90.8
2018-01-12T11:27:32.435Z,90.5
2018-01-12T11:28:37.201Z,90.5
2018-01-12T11:29:40.807Z,90.5
2018-01-12T11:30:44.239Z,90.6
2018-01-12T11:31:47.627Z,90.6
2018-01-12T11:32:52.314Z,90.4
2018-01-12T11:34:02.247Z,90.4
2018-01-12T11:35:06.461Z,90.4
2018-01-12T11:36:12.696Z,90.6
2018-01-12T11:37:17.864Z,90.6
2018-01-12T11:38:23.153Z,90.8
2018-01-12T11:39:29.059Z,90.9
2018-01-12T11:40:35.385Z,90.9
2018-01-12T11:41:40.709Z,90.8
2018-01-12T11:42:47.167Z,90.7
2018-01-12T11:43:55.195Z,90.7
2018-01-12T11:45:11.023Z,90.6
2018-01-12T11:46:17.712Z,90.7
2018-01-12T11:47:22.840Z,90.6
2018-01-12T11:48:29.384Z,90.6
2018-01-12T11:49:35.581Z,90.7
2018-01-12T11:50:41.650Z,90.6
2018-01-12T11:51:47.294Z,90.5
2018-01-12T11:52:55.110Z,90.6
2018-01-12T11:54:00.294Z,90.5
2018-01-12T11:55:04.386Z,90.6
2018-01-12T11:56:12.138Z,90.8
2018-01-12T11:57:16.243Z,90.9
2018-01-12T11:58:19.768Z,91
2018-01-12T11:59:23.227Z,91
2018-01-12T12:00:27.925Z,91
2018-01-12T12:01:33.115Z,91
2018-01-12T12:02:40.720Z,91.1
2018-01-12T12:03:48.642Z,91
2018-01-12T12:04:56.738Z,91.1
2018-01-12T12:06:01.602Z,91.1
2018-01-12T12:07:41.799Z,91.1
2018-01-12T12:08:47.461Z,91.1
2018-01-12T12:09:50.878Z,91.3
2018-01-12T12:10:59.213Z,91.2
2018-01-12T12:12:10.058Z,91.2
2018-01-12T12:13:14.144Z,91.1
2018-01-12T12:14:20.873Z,90.8
2018-01-12T12:15:25.676Z,90.9
2018-01-12T12:16:30.241Z,91
2018-01-12T12:17:33.666Z,91
2018-01-12T12:18:43.026Z,91
2018-01-12T12:19:46.972Z,91.1
2018-01-12T12:20:52.170Z,91.1
2018-01-12T12:21:56.264Z,91
2018-01-12T12:23:00.143Z,91
2018-01-12T12:24:03.699Z,91
2018-01-12T12:25:07.199Z,90.9
2018-01-12T12:26:11.504Z,91
2018-01-12T12:27:15.673Z,91.1
2018-01-12T12:28:19.274Z,91
2018-01-12T12:29:27.907Z,91
2018-01-12T12:30:32.171Z,90.9
2018-01-12T12:31:36.976Z,90.8
2018-01-12T12:33:30.394Z,90.7
2018-01-12T12:34:34.558Z,90.7
2018-01-12T12:35:40.500Z,90.6
2018-01-12T12:36:44.036Z,90.7
2018-01-12T12:37:47.414Z,90.7
2018-01-12T12:38:50.925Z,90.7
2018-01-12T12:39:55.595Z,90.7
2018-01-12T12:41:05.286Z,90.9
2018-01-12T12:42:09.286Z,90.9
2018-01-12T12:43:13.096Z,90.9
2018-01-12T12:44:18.755Z,90.8
2018-01-12T12:45:23.363Z,90.5
2018-01-12T12:46:26.974Z,90.4
2018-01-12T12:47:32.158Z,90.4
2018-01-12T12:48:36.186Z,90.5
2018-01-12T12:49:41.601Z,90.6
2018-01-12T12:50:45.141Z,90.5
2018-01-12T12:51:54.532Z,90.5
2018-01-12T12:52:58.043Z,90.5
2018-01-12T12:54:01.714Z,90.5
2018-01-12T12:55:38.640Z,90.4
2018-01-12T12:57:53.694Z,90.4
2018-01-12T12:58:57.269Z,90.2
2018-01-12T13:00:00.896Z,90.2
2018-01-12T13:01:06.171Z,90.2
2018-01-12T13:02:10.379Z,90.2
2018-01-12T13:03:14.910Z,90.3
2018-01-12T13:04:28.531Z,90.2
2018-01-12T13:05:32.099Z,90.1
2018-01-12T13:06:35.627Z,90.3
2018-01-12T13:07:42.242Z,90.4
2018-01-12T13:08:49.279Z,90.3
2018-01-12T13:09:52.941Z,90.4
2018-01-12T13:10:56.276Z,90.4
2018-01-12T13:11:59.787Z,90.3
2018-01-12T13:13:03.202Z,90.5
2018-01-12T13:14:06.781Z,90.5
2018-01-12T13:15:13.895Z,90.5
2018-01-12T13:16:17.356Z,90.5
2018-01-12T13:17:21.633Z,90.5
2018-01-12T13:18:25.122Z,90.3
2018-01-12T13:19:28.332Z,90.3
2018-01-12T13:20:32.649Z,90.3
2018-01-12T13:21:38.393Z,90.3
2018-01-12T13:22:42.492Z,90.3
2018-01-12T13:23:46.172Z,90.1
2018-01-12T13:24:49.451Z,90.2
2018-01-12T13:25:57.284Z,90.3
2018-01-12T13:27:00.745Z,90.5
2018-01-12T13:28:04.231Z,90.3
2018-01-12T13:29:07.513Z,90.3
2018-01-12T13:30:11.932Z,90.2
2018-01-12T13:31:15.505Z,90.3
2018-01-12T13:32:19.106Z,90.5
2018-01-12T13:33:23.136Z,90.4
2018-01-12T13:34:26.912Z,90.3
2018-01-12T13:35:31.410Z,90.3
2018-01-12T13:36:39.599Z,90.3
2018-01-12T13:37:44.419Z,90.3
2018-01-12T13:38:48.504Z,90.2
2018-01-12T13:39:51.941Z,90.1
2018-01-12T13:40:56.076Z,90.3
2018-01-12T13:42:00.069Z,90.2
2018-01-12T13:43:03.602Z,90.3
2018-01-12T13:44:07.332Z,90.3
2018-01-12T13:45:10.906Z,90.3
2018-01-12T13:46:25.129Z,90.2
2018-01-12T13:47:54.595Z,90.2
2018-01-12T13:48:58.513Z,90.3
2018-01-12T13:50:02.885Z,90.3
2018-01-12T13:51:20.571Z,90.2
2018-01-12T13:52:24.956Z,90.2
2018-01-12T13:53:45.848Z,90.2
2018-01-12T13:55:04.262Z,90.1
2018-01-12T13:56:08.552Z,90.1
2018-01-12T13:57:11.701Z,90.1
2018-01-12T13:58:15.316Z,90.2
2018-01-12T13:59:23.740Z,90.2
2018-01-12T14:00:30.385Z,90.2
2018-01-12T14:01:33.736Z,90
2018-01-12T14:02:37.824Z,90
2018-01-12T14:03:42.518Z,90.2
2018-01-12T14:04:46.894Z,90.2
2018-01-12T14:05:50.980Z,90.1
2018-01-12T14:06:55.415Z,90.1
2018-01-12T14:07:59.713Z,90
2018-01-12T14:09:03.215Z,90
2018-01-12T14:10:10.900Z,90
2018-01-12T14:11:14.307Z,90
2018-01-12T14:12:18.248Z,90
2018-01-12T14:13:21.784Z,89.9
2018-01-12T14:14:25.229Z,89.6
2018-01-12T14:15:28.786Z,89.8
2018-01-12T14:16:32.342Z,90
2018-01-12T14:17:35.777Z,90
2018-01-12T14:18:39.255Z,90
2018-01-12T14:19:42.386Z,90
2018-01-12T14:21:21.096Z,90.1
2018-01-12T14:22:25.239Z,90.1
2018-01-12T14:23:29.495Z,90.2
2018-01-12T14:24:32.781Z,90.3
2018-01-12T14:25:37.927Z,90.2
2018-01-12T14:26:43.449Z,90.2
2018-01-12T14:27:46.944Z,90.1
2018-01-12T14:28:51.247Z,89.9
2018-01-12T14:29:54.618Z,89.6
2018-01-12T14:31:00.007Z,90
2018-01-12T14:32:09.437Z,90
2018-01-12T14:33:12.690Z,90
2018-01-12T14:34:16.564Z,90
2018-01-12T14:35:20.027Z,90.1
2018-01-12T14:36:34.547Z,90.1
2018-01-12T14:37:47.980Z,90
2018-01-12T14:38:53.836Z,89.8
2018-01-12T14:39:57.656Z,89.9
2018-01-12T14:41:03.868Z,90
2018-01-12T14:42:09.309Z,90
2018-01-12T14:43:20.675Z,89.8
2018-01-12T14:44:26.940Z,90
2018-01-12T14:45:53.076Z,90
2018-01-12T14:47:10.131Z,89.8
2018-01-12T14:48:16.340Z,89.8
2018-01-12T14:49:19.704Z,89.6
2018-01-12T14:50:27.605Z,89.8
2018-01-12T14:51:31.296Z,90.1
2018-01-12T14:52:34.899Z,90.1
2018-01-12T14:53:39.014Z,90.1
2018-01-12T14:54:46.103Z,90.2
2018-01-12T14:55:50.936Z,90.3
2018-01-12T14:56:55.718Z,90.1
2018-01-12T14:58:00.770Z,90.2
2018-01-12T14:59:04.285Z,90
2018-01-12T15:00:07.878Z,90.1
2018-01-12T15:01:11.114Z,90.2
2018-01-12T15:02:14.648Z,90.2
2018-01-12T15:03:18.360Z,90.1
2018-01-12T15:04:22.890Z,90.2
2018-01-12T15:05:30.146Z,90.1
2018-01-12T15:06:33.632Z,90
2018-01-12T15:07:37.317Z,90